Time;durP1;ratioP1;P1;durP2;ratioP2;P2;SDS_P1;SDS_P2;PMS_P1;PMS_P2;Temp;Humidity;BMP_temperature;BMP_pressure;BME280_temperature;BME280_humidity;BME280_pressure;Samples;Min_cycle;Max_cycle;Signal;HPM_P1;HPM_P2
2023/10/19 00:02:08;;;;;;;28.73;23.07;;;9.90;99.90;;;;;;5031238;28;20449;-65
2023/10/19 00:04:36;;;;;;;22.33;20.10;;;9.90;99.90;;;;;;5031530;28;20442;-65
2023/10/19 00:07:04;;;;;;;24.17;21.87;;;9.90;99.90;;;;;;5031381;28;20450;-65
2023/10/19 00:09:37;;;;;;;25.20;21.03;;;9.90;99.90;;;;;;5031188;28;20832;-65
2023/10/19 00:12:04;;;;;;;28.27;21.43;;;9.90;99.90;;;;;;5031497;28;20500;-64
2023/10/19 00:14:32;;;;;;;23.57;21.03;;;9.90;99.90;;;;;;5031751;28;20866;-64
2023/10/19 00:17:00;;;;;;;30.67;22.00;;;9.90;99.90;;;;;;5031527;28;20915;-64
2023/10/19 00:19:29;;;;;;;29.10;22.10;;;9.90;99.90;;;;;;5031133;28;20468;-65
2023/10/19 00:21:55;;;;;;;29.37;22.53;;;10.00;99.90;;;;;;5031342;28;20553;-64
2023/10/19 00:24:23;;;;;;;30.43;23.23;;;10.00;99.90;;;;;;5031135;28;20506;-64
2023/10/19 00:26:52;;;;;;;26.90;21.80;;;10.00;99.90;;;;;;5031447;28;20457;-64
2023/10/19 00:29:30;;;;;;;27.93;22.37;;;10.00;99.90;;;;;;5031099;28;20446;-64
2023/10/19 00:31:59;;;;;;;26.40;22.17;;;10.00;99.90;;;;;;5031262;28;20445;-65
2023/10/19 00:34:26;;;;;;;33.87;22.80;;;10.00;99.90;;;;;;5031100;28;20473;-65
2023/10/19 00:36:55;;;;;;;30.17;23.60;;;10.00;99.90;;;;;;5031330;28;20922;-64
2023/10/19 00:39:23;;;;;;;26.47;21.77;;;10.00;99.90;;;;;;5031089;28;20499;-64
2023/10/19 00:41:55;;;;;;;26.23;22.20;;;10.00;99.90;;;;;;5031093;28;20450;-64
2023/10/19 00:44:28;;;;;;;28.53;23.50;;;10.00;99.90;;;;;;5030949;28;20466;-64
2023/10/19 00:47:02;;;;;;;29.40;24.80;;;10.10;99.90;;;;;;5030824;28;20449;-65
2023/10/19 00:49:29;;;;;;;34.43;23.60;;;10.10;99.90;;;;;;5030942;28;20445;-64
2023/10/19 00:52:03;;;;;;;25.40;21.83;;;10.10;99.90;;;;;;5031189;28;20446;-65
2023/10/19 00:54:35;;;;;;;31.80;23.80;;;10.10;99.90;;;;;;5031142;28;20504;-65
2023/10/19 00:57:06;;;;;;;31.67;23.80;;;10.10;99.90;;;;;;5031557;28;20552;-65
2023/10/19 00:59:38;;;;;;;25.00;22.00;;;10.10;99.90;;;;;;5030674;28;20515;-65
2023/10/19 01:02:17;;;;;;;28.13;23.90;;;10.10;99.90;;;;;;5030816;28;20946;-64
2023/10/19 01:04:50;;;;;;;27.40;23.70;;;10.10;99.90;;;;;;5031090;28;20556;-65
2023/10/19 01:07:22;;;;;;;31.40;24.97;;;10.00;99.90;;;;;;5030990;28;20446;-65
2023/10/19 01:09:52;;;;;;;26.53;23.03;;;10.10;99.90;;;;;;5030555;28;20449;-64
2023/10/19 01:12:29;;;;;;;27.77;23.23;;;10.00;99.90;;;;;;5030671;28;20525;-65
2023/10/19 01:15:07;;;;;;;28.50;24.67;;;10.00;99.90;;;;;;5012494;28;21016;-65
2023/10/19 01:17:38;;;;;;;31.90;24.87;;;10.00;99.90;;;;;;5014877;28;20513;-65
2023/10/19 01:20:19;;;;;;;30.93;26.67;;;10.00;99.90;;;;;;5014412;28;20553;-65
2023/10/19 01:23:08;;;;;;;30.73;26.73;;;10.00;99.90;;;;;;5014536;28;20478;-64
2023/10/19 01:25:47;;;;;;;33.23;25.43;;;10.00;99.90;;;;;;5014533;28;20457;-65
2023/10/19 01:28:16;;;;;;;33.50;26.43;;;10.00;99.90;;;;;;5014401;28;20500;-65
2023/10/19 01:30:44;;;;;;;29.10;24.57;;;10.00;99.90;;;;;;5014563;28;20465;-64
2023/10/19 01:33:15;;;;;;;30.70;23.33;;;10.00;99.90;;;;;;5014504;28;20469;-64
2023/10/19 01:38:30;;;;;;;29.80;24.37;;;10.10;99.90;;;;;;5014269;28;20484;-65
2023/10/19 01:40:59;;;;;;;36.30;25.80;;;10.10;99.90;;;;;;5014289;28;20472;-65
2023/10/19 01:43:30;;;;;;;30.80;24.60;;;10.10;99.90;;;;;;5013831;28;20475;-65
2023/10/19 01:45:56;;;;;;;31.00;26.07;;;10.10;99.90;;;;;;5014518;28;20490;-65
2023/10/19 01:48:31;;;;;;;32.90;25.67;;;10.10;99.90;;;;;;5013845;28;20466;-65
2023/10/19 01:50:57;;;;;;;32.67;27.50;;;10.10;99.90;;;;;;5014172;28;20450;-65
2023/10/19 01:53:25;;;;;;;32.67;25.97;;;10.00;99.90;;;;;;5014015;28;20532;-64
2023/10/19 01:55:57;;;;;;;33.33;26.00;;;10.00;99.90;;;;;;5014422;28;20211;-64
2023/10/19 01:58:25;;;;;;;35.00;27.70;;;10.00;99.90;;;;;;5013833;28;20490;-65
2023/10/19 02:00:54;;;;;;;35.17;25.30;;;10.00;99.90;;;;;;5014069;28;20447;-65
2023/10/19 02:03:22;;;;;;;39.13;27.27;;;10.10;99.90;;;;;;5013916;28;20505;-64
2023/10/19 02:05:50;;;;;;;34.97;26.20;;;10.10;99.90;;;;;;5013844;28;20485;-64
2023/10/19 02:08:17;;;;;;;33.40;28.70;;;10.10;99.90;;;;;;5013678;28;20451;-65
2023/10/19 02:10:46;;;;;;;36.17;28.90;;;10.20;99.90;;;;;;5014201;28;20461;-65
2023/10/19 02:13:15;;;;;;;38.07;29.00;;;10.20;99.90;;;;;;5029712;28;20472;-63
2023/10/19 02:15:44;;;;;;;34.23;26.10;;;10.20;99.90;;;;;;5033733;28;20551;-64
2023/10/19 02:18:11;;;;;;;35.03;28.37;;;10.20;99.90;;;;;;5033272;28;21122;-65
2023/10/19 02:20:40;;;;;;;37.80;28.20;;;10.20;99.90;;;;;;5033082;28;20884;-63
2023/10/19 02:23:07;;;;;;;36.77;28.00;;;10.20;99.90;;;;;;5033321;28;21019;-64
2023/10/19 02:25:36;;;;;;;34.73;28.10;;;10.20;99.90;;;;;;5033271;28;20457;-64
2023/10/19 02:28:03;;;;;;;33.53;26.83;;;10.30;99.90;;;;;;5033399;28;20898;-65
2023/10/19 02:30:33;;;;;;;38.70;28.87;;;10.30;99.90;;;;;;5033229;28;20452;-65
2023/10/19 02:33:00;;;;;;;32.80;27.70;;;10.30;99.90;;;;;;5033163;28;20552;-64
2023/10/19 02:35:27;;;;;;;42.33;30.07;;;10.30;99.90;;;;;;5033476;28;20476;-65
2023/10/19 02:37:53;;;;;;;40.40;28.13;;;10.30;99.90;;;;;;5055769;22;20890;-63
2023/10/19 02:40:21;;;;;;;30.23;26.30;;;10.30;99.90;;;;;;5013314;28;20443;-61
2023/10/19 02:42:47;;;;;;;31.63;26.57;;;10.40;99.90;;;;;;5013521;28;20473;-63
2023/10/19 02:45:16;;;;;;;33.80;26.63;;;10.40;99.90;;;;;;5013355;28;20524;-63
2023/10/19 02:47:45;;;;;;;36.93;26.93;;;10.40;99.90;;;;;;5013082;28;20459;-62
2023/10/19 02:50:13;;;;;;;35.97;27.37;;;10.40;99.90;;;;;;5013174;28;20454;-63
2023/10/19 02:52:40;;;;;;;40.00;28.30;;;10.40;99.90;;;;;;5013333;28;20447;-62
2023/10/19 02:55:09;;;;;;;33.93;28.30;;;10.50;99.90;;;;;;5013263;28;20443;-63
2023/10/19 02:57:37;;;;;;;34.27;27.60;;;10.40;99.90;;;;;;5012942;28;20486;-61
2023/10/19 03:00:08;;;;;;;41.60;29.37;;;10.50;99.90;;;;;;5012770;28;20944;-61
2023/10/19 03:02:36;;;;;;;36.30;29.30;;;10.40;99.90;;;;;;5012411;28;20446;-61
2023/10/19 03:05:12;;;;;;;39.70;28.47;;;10.40;99.90;;;;;;5012776;28;20489;-63
2023/10/19 03:07:39;;;;;;;39.00;29.10;;;10.40;99.90;;;;;;5012630;28;20545;-62
2023/10/19 03:10:07;;;;;;;41.97;31.13;;;10.40;99.90;;;;;;5011786;28;20455;-63
2023/10/19 03:12:33;;;;;;;33.57;28.47;;;10.40;99.90;;;;;;5012271;28;21015;-62
2023/10/19 03:15:01;;;;;;;41.47;28.50;;;10.40;99.90;;;;;;5012503;28;20454;-61
2023/10/19 03:17:30;;;;;;;39.73;28.77;;;10.40;99.90;;;;;;5012338;28;20577;-63
2023/10/19 03:19:57;;;;;;;43.43;29.33;;;10.50;99.90;;;;;;5012635;28;20882;-62
2023/10/19 03:22:27;;;;;;;39.77;29.33;;;10.50;99.90;;;;;;5012826;28;21027;-63
2023/10/19 03:25:14;;;;;;;42.60;29.20;;;10.40;99.90;;;;;;5012152;28;20457;-63
2023/10/19 03:27:44;;;;;;;36.17;30.87;;;10.50;99.90;;;;;;5012333;28;20467;-62
2023/10/19 03:30:14;;;;;;;37.23;28.37;;;10.50;99.90;;;;;;5012601;28;20537;-63
2023/10/19 03:32:41;;;;;;;46.83;32.57;;;10.50;99.90;;;;;;5012609;28;20451;-63
2023/10/19 03:35:13;;;;;;;39.13;29.80;;;10.50;99.90;;;;;;5012603;28;20451;-63
2023/10/19 03:37:44;;;;;;;32.53;27.00;;;10.50;99.90;;;;;;5011494;28;20490;-63
2023/10/19 03:40:16;;;;;;;38.43;31.33;;;10.50;99.90;;;;;;5011824;28;20534;-62
2023/10/19 03:42:46;;;;;;;43.20;31.17;;;10.50;99.90;;;;;;5012377;28;20448;-62
2023/10/19 03:45:14;;;;;;;45.00;30.27;;;10.50;99.90;;;;;;5012197;28;20489;-63
2023/10/19 03:47:43;;;;;;;41.40;28.40;;;10.50;99.90;;;;;;5012084;28;20478;-63
2023/10/19 03:50:14;;;;;;;39.53;29.13;;;10.50;99.90;;;;;;5011546;28;20462;-64
2023/10/19 03:52:42;;;;;;;42.00;31.10;;;10.50;99.90;;;;;;5011588;28;20545;-62
2023/10/19 03:55:15;;;;;;;40.77;31.03;;;10.50;99.90;;;;;;5011837;28;20715;-63
2023/10/19 03:57:46;;;;;;;43.93;31.53;;;10.50;99.90;;;;;;5011641;28;20959;-63
2023/10/19 04:00:19;;;;;;;43.77;30.17;;;10.50;99.90;;;;;;5011980;28;20486;-63
2023/10/19 04:02:46;;;;;;;47.03;30.43;;;10.50;99.90;;;;;;5011977;28;20481;-63
2023/10/19 04:05:21;;;;;;;41.67;30.70;;;10.50;99.90;;;;;;5011857;28;20456;-63
2023/10/19 04:07:53;;;;;;;40.13;29.70;;;10.50;99.90;;;;;;5011609;28;20458;-63
2023/10/19 04:10:30;;;;;;;48.27;30.90;;;10.50;99.90;;;;;;5011682;28;20593;-63
2023/10/19 04:13:00;;;;;;;43.53;31.40;;;10.50;99.90;;;;;;5011949;28;20529;-64
2023/10/19 04:15:28;;;;;;;41.00;30.60;;;10.50;99.90;;;;;;5011764;28;20486;-63
2023/10/19 04:17:58;;;;;;;44.07;33.60;;;10.60;99.90;;;;;;5011445;28;20483;-63
2023/10/19 04:20:30;;;;;;;44.17;31.40;;;10.50;99.90;;;;;;5011495;28;20458;-63
2023/10/19 04:23:05;;;;;;;47.87;30.97;;;10.50;99.90;;;;;;5011820;28;20929;-63
2023/10/19 04:25:32;;;;;;;46.67;31.90;;;10.60;99.90;;;;;;5011899;28;20532;-63
2023/10/19 04:28:00;;;;;;;43.53;31.87;;;10.60;99.90;;;;;;5011734;28;20560;-63
2023/10/19 04:30:27;;;;;;;51.60;33.70;;;10.60;99.90;;;;;;5011339;28;20482;-63
2023/10/19 04:32:57;;;;;;;43.43;29.23;;;10.50;99.90;;;;;;5011809;28;20446;-63
2023/10/19 04:35:24;;;;;;;42.87;32.10;;;10.50;99.90;;;;;;5011715;28;20889;-63
2023/10/19 04:37:51;;;;;;;46.83;34.47;;;10.60;99.90;;;;;;5011282;28;21059;-63
2023/10/19 04:40:21;;;;;;;45.63;31.70;;;10.60;99.90;;;;;;5011042;28;20451;-63
2023/10/19 04:42:49;;;;;;;35.47;28.90;;;10.60;99.90;;;;;;5011437;28;20538;-63
2023/10/19 04:45:15;;;;;;;40.97;32.67;;;10.60;99.90;;;;;;5011373;28;20451;-63
2023/10/19 04:47:42;;;;;;;44.00;29.80;;;10.60;99.90;;;;;;5011445;28;20498;-63
2023/10/19 04:50:10;;;;;;;49.33;31.80;;;10.70;99.90;;;;;;5014758;28;20460;-63
2023/10/19 04:52:37;;;;;;;38.77;29.50;;;10.70;99.90;;;;;;5015429;28;20446;-63
2023/10/19 04:55:05;;;;;;;41.23;28.67;;;10.60;99.90;;;;;;5015139;28;20546;-63
2023/10/19 04:57:33;;;;;;;34.97;26.93;;;10.60;99.90;;;;;;5015293;28;20852;-63
2023/10/19 05:00:00;;;;;;;42.33;28.83;;;10.70;99.90;;;;;;5014980;28;20450;-62
2023/10/19 05:02:27;;;;;;;48.60;32.80;;;10.70;99.90;;;;;;5015212;28;20542;-63
2023/10/19 05:04:54;;;;;;;49.00;32.70;;;10.70;99.90;;;;;;5015229;28;20454;-63
2023/10/19 05:07:20;;;;;;;41.53;30.47;;;10.70;99.90;;;;;;5014977;28;20959;-63
2023/10/19 05:09:47;;;;;;;34.87;26.60;;;10.70;99.90;;;;;;5014598;28;20565;-63
2023/10/19 05:12:15;;;;;;;40.20;28.50;;;10.70;99.90;;;;;;5015270;28;20994;-61
2023/10/19 05:14:44;;;;;;;37.60;30.00;;;10.70;99.90;;;;;;5014781;28;20450;-63
2023/10/19 05:17:11;;;;;;;40.67;27.47;;;10.80;99.90;;;;;;5014813;28;21028;-63
2023/10/19 05:19:40;;;;;;;41.67;29.83;;;10.80;99.90;;;;;;5014421;28;20493;-63
2023/10/19 05:22:08;;;;;;;39.17;29.90;;;10.80;99.90;;;;;;5014575;28;20450;-62
2023/10/19 05:24:35;;;;;;;41.30;28.07;;;10.80;99.90;;;;;;5014917;28;20570;-63
2023/10/19 05:27:02;;;;;;;38.10;31.33;;;10.80;99.90;;;;;;5014981;28;20450;-63
2023/10/19 05:29:32;;;;;;;50.57;32.47;;;10.80;99.90;;;;;;5014483;28;20466;-63
2023/10/19 05:32:00;;;;;;;36.10;26.73;;;10.80;99.90;;;;;;5014625;28;20542;-62
2023/10/19 05:34:29;;;;;;;40.30;29.80;;;10.80;99.90;;;;;;5014656;28;20450;-63
2023/10/19 05:36:58;;;;;;;43.47;30.03;;;10.80;99.90;;;;;;5014172;28;20450;-63
2023/10/19 05:39:27;;;;;;;43.33;31.10;;;10.80;99.90;;;;;;5013954;28;20494;-63
2023/10/19 05:41:54;;;;;;;48.93;32.53;;;10.90;99.90;;;;;;5014467;28;20937;-63
2023/10/19 05:44:24;;;;;;;42.20;29.50;;;10.80;99.90;;;;;;5014512;28;20567;-63
2023/10/19 05:46:51;;;;;;;38.27;27.20;;;10.80;99.90;;;;;;5014154;28;20478;-63
2023/10/19 05:49:19;;;;;;;37.37;28.97;;;10.80;99.90;;;;;;5013909;28;20463;-63
2023/10/19 05:51:46;;;;;;;34.73;27.10;;;10.90;99.90;;;;;;5014473;28;20461;-63
2023/10/19 05:54:13;;;;;;;42.57;29.03;;;10.90;99.90;;;;;;5014047;28;20442;-62
2023/10/19 05:56:40;;;;;;;43.50;30.60;;;10.90;99.90;;;;;;5014325;28;20455;-63
2023/10/19 05:59:08;;;;;;;38.90;29.17;;;10.90;99.90;;;;;;5013650;28;20494;-64
2023/10/19 06:01:35;;;;;;;39.90;29.57;;;10.90;99.90;;;;;;5013468;28;20450;-63
2023/10/19 06:04:02;;;;;;;40.10;30.40;;;10.90;99.90;;;;;;5013972;28;20462;-63
2023/10/19 06:06:30;;;;;;;42.80;28.13;;;10.90;99.90;;;;;;5035022;28;20445;-63
2023/10/19 06:08:57;;;;;;;49.33;33.60;;;10.90;99.90;;;;;;5053319;28;20461;-63
2023/10/19 06:11:24;;;;;;;42.43;29.27;;;10.90;99.90;;;;;;5053527;28;20453;-63
2023/10/19 06:13:52;;;;;;;37.83;30.17;;;11.00;99.90;;;;;;5053668;28;20440;-63
2023/10/19 06:16:18;;;;;;;45.47;33.77;;;10.90;99.90;;;;;;5053380;28;20459;-64
2023/10/19 06:18:45;;;;;;;47.43;34.27;;;10.90;99.90;;;;;;5053195;28;20884;-62
2023/10/19 06:21:13;;;;;;;39.30;29.20;;;10.90;99.90;;;;;;5053609;28;20449;-63
2023/10/19 06:23:41;;;;;;;42.90;28.57;;;10.90;99.90;;;;;;5053439;28;20455;-63
2023/10/19 06:26:12;;;;;;;35.93;27.77;;;10.90;99.90;;;;;;5053308;28;20966;-63
2023/10/19 06:28:40;;;;;;;42.97;31.57;;;11.00;99.90;;;;;;5052988;28;20472;-64
2023/10/19 06:31:08;;;;;;;39.20;29.67;;;11.00;99.90;;;;;;5053224;28;20441;-63
2023/10/19 06:33:35;;;;;;;42.23;30.20;;;11.00;99.90;;;;;;5053173;28;20981;-62
2023/10/19 06:36:03;;;;;;;48.70;32.40;;;11.00;99.90;;;;;;5053079;28;20973;-63
2023/10/19 06:38:31;;;;;;;37.30;29.17;;;11.00;99.90;;;;;;5052392;28;20488;-63
2023/10/19 06:41:02;;;;;;;47.87;33.57;;;11.10;99.90;;;;;;5053055;28;20819;-62
2023/10/19 06:43:30;;;;;;;47.23;30.73;;;11.10;99.90;;;;;;5052905;28;20456;-62
2023/10/19 06:45:57;;;;;;;46.80;34.73;;;11.10;99.90;;;;;;5053045;28;20441;-63
2023/10/19 06:48:24;;;;;;;44.37;34.70;;;11.10;99.90;;;;;;5052369;28;20469;-62
2023/10/19 06:50:51;;;;;;;48.50;35.37;;;11.20;99.90;;;;;;5052843;28;20705;-63
2023/10/19 06:53:18;;;;;;;49.13;34.93;;;11.20;99.90;;;;;;5042423;28;20542;-63
2023/10/19 06:55:45;;;;;;;55.80;37.57;;;11.20;99.90;;;;;;5032503;28;20461;-63
2023/10/19 06:58:14;;;;;;;43.90;36.37;;;11.20;99.90;;;;;;5029548;28;20495;-63
2023/10/19 07:00:43;;;;;;;41.83;31.57;;;11.20;99.90;;;;;;5032596;28;21060;-62
2023/10/19 07:03:10;;;;;;;47.40;35.57;;;11.30;99.90;;;;;;5031334;28;20449;-63
2023/10/19 07:05:37;;;;;;;47.73;33.13;;;11.30;99.90;;;;;;5032480;28;20529;-63
2023/10/19 07:08:06;;;;;;;39.43;32.43;;;11.40;99.90;;;;;;5031376;28;20465;-63
2023/10/19 07:10:34;;;;;;;44.17;33.47;;;11.40;99.90;;;;;;5031634;28;20472;-63
2023/10/19 07:13:01;;;;;;;49.70;31.87;;;11.50;99.90;;;;;;5029687;28;21119;-63
2023/10/19 07:15:31;;;;;;;44.20;33.67;;;11.50;99.90;;;;;;5031730;28;20869;-63
2023/10/19 07:17:58;;;;;;;46.07;32.47;;;11.50;99.90;;;;;;5017354;28;20477;-63
2023/10/19 07:20:28;;;;;;;37.43;29.47;;;11.60;99.90;;;;;;5028958;28;20466;-62
2023/10/19 07:22:56;;;;;;;43.40;32.27;;;11.70;99.90;;;;;;5031112;28;20830;-63
2023/10/19 07:25:25;;;;;;;46.50;34.10;;;11.70;99.90;;;;;;5027350;28;20450;-64
2023/10/19 07:27:53;;;;;;;45.50;33.10;;;11.80;99.90;;;;;;5030421;28;20497;-64
2023/10/19 07:30:21;;;;;;;39.10;31.40;;;11.80;99.90;;;;;;5030063;28;20461;-63
2023/10/19 07:32:58;;;;;;;34.37;27.70;;;11.80;99.90;;;;;;5031281;28;20454;-61
2023/10/19 07:35:25;;;;;;;41.60;30.17;;;11.90;99.90;;;;;;5027556;28;20463;-63
2023/10/19 07:37:52;;;;;;;38.90;32.30;;;11.90;99.90;;;;;;5030481;28;20477;-63
2023/10/19 07:40:20;;;;;;;42.13;31.80;;;12.00;99.90;;;;;;5031698;28;20576;-62
2023/10/19 07:42:49;;;;;;;43.90;35.30;;;12.00;99.90;;;;;;5031395;28;20465;-62
2023/10/19 07:45:16;;;;;;;46.43;34.50;;;12.00;99.90;;;;;;5031433;28;20457;-63
2023/10/19 07:47:44;;;;;;;45.30;34.50;;;12.10;99.90;;;;;;5031655;28;20470;-63
2023/10/19 07:50:15;;;;;;;55.90;34.43;;;12.20;99.90;;;;;;5030369;28;21046;-63
2023/10/19 07:52:43;;;;;;;50.10;32.57;;;12.20;99.90;;;;;;5031468;28;20816;-63
2023/10/19 07:55:10;;;;;;;43.00;32.87;;;12.30;99.90;;;;;;5031342;28;20545;-64
2023/10/19 07:57:40;;;;;;;46.07;35.20;;;12.40;99.90;;;;;;5031212;28;20892;-62
2023/10/19 08:00:08;;;;;;;42.10;32.20;;;12.50;99.90;;;;;;5024017;28;20933;-63
2023/10/19 08:02:35;;;;;;;51.20;34.40;;;12.50;99.90;;;;;;5031277;28;20442;-62
2023/10/19 08:05:03;;;;;;;46.10;32.80;;;12.60;99.90;;;;;;5030446;28;20842;-64
2023/10/19 08:07:31;;;;;;;45.53;33.20;;;12.70;99.90;;;;;;5030835;28;20943;-63
2023/10/19 08:09:59;;;;;;;36.13;31.30;;;12.70;99.90;;;;;;5023120;28;20525;-64
2023/10/19 08:12:26;;;;;;;46.40;32.13;;;12.80;99.90;;;;;;5031464;28;21386;-64
2023/10/19 08:14:53;;;;;;;48.93;33.87;;;12.90;99.90;;;;;;5031315;28;20446;-64
2023/10/19 08:17:20;;;;;;;59.07;36.77;;;12.90;99.90;;;;;;5030616;28;20545;-63
2023/10/19 08:19:47;;;;;;;50.23;35.90;;;13.00;99.90;;;;;;5027715;28;20517;-64
2023/10/19 08:22:14;;;;;;;46.70;33.90;;;13.10;99.90;;;;;;5030034;28;20456;-62
2023/10/19 08:24:43;;;;;;;46.67;31.80;;;13.10;99.90;;;;;;5030164;28;21022;-63
2023/10/19 08:27:10;;;;;;;43.63;30.53;;;13.10;99.90;;;;;;5029134;28;20940;-63
2023/10/19 08:29:38;;;;;;;42.17;31.57;;;13.10;99.90;;;;;;5030583;28;20910;-63
2023/10/19 08:32:06;;;;;;;45.27;28.53;;;13.10;99.90;;;;;;5030214;28;20461;-64
2023/10/19 08:34:36;;;;;;;40.03;29.33;;;13.10;99.90;;;;;;5031216;28;20491;-64
2023/10/19 08:37:04;;;;;;;44.77;28.80;;;13.10;99.90;;;;;;5030468;28;20456;-62
2023/10/19 08:39:35;;;;;;;48.00;33.30;;;13.10;99.90;;;;;;5029092;28;20525;-63
2023/10/19 08:42:04;;;;;;;39.00;29.60;;;13.10;99.90;;;;;;5022939;28;20472;-63
2023/10/19 08:44:31;;;;;;;44.67;34.50;;;13.10;99.90;;;;;;5031016;28;20449;-64
2023/10/19 08:46:59;;;;;;;46.07;36.00;;;13.20;99.90;;;;;;5029861;28;20454;-63
2023/10/19 08:49:27;;;;;;;51.67;33.07;;;13.20;99.90;;;;;;5028660;28;20523;-64
2023/10/19 08:51:55;;;;;;;42.90;31.83;;;13.20;99.90;;;;;;5030344;28;20576;-63
2023/10/19 08:54:22;;;;;;;47.90;34.30;;;13.20;99.90;;;;;;5030551;28;20544;-63
2023/10/19 08:56:49;;;;;;;46.13;33.77;;;13.30;99.90;;;;;;5029894;28;20536;-63
2023/10/19 08:59:17;;;;;;;47.97;34.67;;;13.30;99.90;;;;;;5030314;28;20512;-63
2023/10/19 09:01:44;;;;;;;50.73;34.43;;;13.30;99.90;;;;;;5030003;28;20453;-63
2023/10/19 09:04:13;;;;;;;48.63;32.70;;;13.40;99.90;;;;;;5030404;28;20936;-63
2023/10/19 09:06:42;;;;;;;50.60;31.37;;;13.40;99.90;;;;;;5030036;28;20458;-64
2023/10/19 09:09:14;;;;;;;52.67;33.67;;;13.50;99.90;;;;;;5030188;28;20458;-64
2023/10/19 09:11:41;;;;;;;56.80;36.70;;;13.40;99.90;;;;;;5030149;28;20827;-63
2023/10/19 09:14:08;;;;;;;57.43;35.47;;;13.50;99.90;;;;;;5030618;28;20875;-63
2023/10/19 09:16:36;;;;;;;59.40;35.27;;;13.60;99.90;;;;;;5029793;28;21021;-63
2023/10/19 09:19:04;;;;;;;51.40;35.40;;;13.60;99.90;;;;;;5029929;28;20493;-63
2023/10/19 09:21:32;;;;;;;51.47;34.60;;;13.70;99.90;;;;;;5030024;28;20507;-63
2023/10/19 09:23:59;;;;;;;55.43;38.50;;;13.80;99.90;;;;;;5029026;28;20460;-63
2023/10/19 09:26:26;;;;;;;54.50;35.40;;;13.80;99.90;;;;;;5029725;28;20552;-62
2023/10/19 09:28:54;;;;;;;65.37;39.50;;;13.90;99.90;;;;;;5029455;28;20478;-63
2023/10/19 09:31:24;;;;;;;58.43;36.80;;;14.00;99.90;;;;;;5030490;28;20920;-63
2023/10/19 09:33:53;;;;;;;51.37;35.97;;;14.10;99.90;;;;;;5030838;28;20890;-64
2023/10/19 09:36:22;;;;;;;58.27;41.20;;;14.20;99.90;;;;;;5028569;28;20877;-63
2023/10/19 09:38:51;;;;;;;58.83;34.83;;;14.30;99.90;;;;;;5031819;28;20508;-64
2023/10/19 09:41:19;;;;;;;63.60;39.87;;;14.30;99.90;;;;;;5033048;28;20450;-63
2023/10/19 09:43:48;;;;;;;53.00;35.43;;;14.40;99.90;;;;;;5033510;28;20884;-64
2023/10/19 09:46:22;;;;;;;42.03;33.50;;;14.40;99.90;;;;;;5033598;28;20492;-62
2023/10/19 09:48:49;;;;;;;57.90;35.17;;;14.40;99.90;;;;;;5033378;28;20484;-63
2023/10/19 09:51:19;;;;;;;52.17;33.27;;;14.50;99.90;;;;;;5033130;28;20536;-63
2023/10/19 09:53:49;;;;;;;57.33;36.20;;;14.50;99.90;;;;;;5032980;28;20450;-63
2023/10/19 09:56:21;;;;;;;58.30;37.40;;;14.50;99.90;;;;;;5032718;28;20446;-63
2023/10/19 09:58:53;;;;;;;52.57;35.47;;;14.60;99.90;;;;;;5032373;28;20496;-63
2023/10/19 10:01:21;;;;;;;51.63;36.33;;;14.70;99.90;;;;;;5033396;28;21007;-64
2023/10/19 10:03:51;;;;;;;56.77;35.73;;;14.80;99.90;;;;;;5033257;28;20453;-64
2023/10/19 10:06:30;;;;;;;47.47;34.10;;;14.80;99.90;;;;;;5033558;28;20450;-64
2023/10/19 10:08:59;;;;;;;40.60;33.37;;;14.90;99.90;;;;;;5027484;28;20457;-65
2023/10/19 10:11:27;;;;;;;48.20;34.57;;;15.00;99.90;;;;;;5027212;28;20816;-64
2023/10/19 10:13:55;;;;;;;44.63;35.30;;;15.10;99.90;;;;;;5023077;28;20455;-63
2023/10/19 10:16:26;;;;;;;41.03;33.60;;;15.20;99.90;;;;;;5019656;28;20881;-64
2023/10/19 10:18:58;;;;;;;44.37;34.60;;;15.30;99.90;;;;;;5029140;28;20573;-63
2023/10/19 10:21:28;;;;;;;45.80;33.27;;;15.40;99.90;;;;;;5022298;28;20443;-64
2023/10/19 10:23:56;;;;;;;40.27;32.30;;;15.50;99.90;;;;;;5023402;28;20457;-64
2023/10/19 10:26:25;;;;;;;40.23;31.33;;;15.70;99.90;;;;;;5025149;28;20864;-64
2023/10/19 10:29:14;;;;;;;43.53;32.43;;;15.80;99.90;;;;;;5029296;28;20465;-64
2023/10/19 10:31:45;;;;;;;35.60;28.57;;;16.10;99.90;;;;;;5022156;28;20473;-64
2023/10/19 10:34:33;;;;;;;36.93;30.70;;;16.20;99.90;;;;;;5012632;28;20447;-64
2023/10/19 10:37:03;;;;;;;37.07;32.10;;;16.40;99.90;;;;;;5028836;28;20464;-64
2023/10/19 10:39:31;;;;;;;37.00;29.83;;;16.40;99.90;;;;;;5018933;28;20497;-64
2023/10/19 10:41:58;;;;;;;34.97;31.23;;;16.50;99.90;;;;;;5022401;28;20451;-64
2023/10/19 10:44:39;;;;;;;32.73;28.50;;;16.50;99.90;;;;;;5024365;28;20450;-64
2023/10/19 10:47:09;;;;;;;34.80;29.73;;;16.60;99.90;;;;;;5031734;28;20449;-64
2023/10/19 10:49:46;;;;;;;32.37;28.40;;;16.60;99.90;;;;;;5024346;28;20529;-64
2023/10/19 10:52:24;;;;;;;30.23;26.33;;;16.70;99.90;;;;;;5024857;28;20437;-64
2023/10/19 10:54:50;;;;;;;29.40;26.10;;;16.70;99.90;;;;;;5015555;28;20538;-64
2023/10/19 10:57:17;;;;;;;28.93;25.97;;;16.80;99.90;;;;;;5027097;28;20526;-64
2023/10/19 10:59:44;;;;;;;29.93;26.80;;;16.80;99.90;;;;;;5020383;28;20485;-63
2023/10/19 11:02:18;;;;;;;30.90;27.63;;;16.80;99.90;;;;;;5020187;28;20446;-65
2023/10/19 11:04:46;;;;;;;30.80;27.67;;;16.80;99.90;;;;;;5025206;28;20541;-64
2023/10/19 11:07:21;;;;;;;29.37;26.57;;;16.90;99.90;;;;;;5021320;28;20462;-64
2023/10/19 11:09:48;;;;;;;31.07;27.20;;;16.90;99.90;;;;;;5012054;28;20965;-63
2023/10/19 11:12:16;;;;;;;30.63;26.27;;;16.90;99.90;;;;;;5024936;28;20526;-64
2023/10/19 11:14:53;;;;;;;31.07;27.97;;;17.00;99.90;;;;;;5015869;28;20447;-64
2023/10/19 11:17:23;;;;;;;30.63;26.70;;;17.00;99.90;;;;;;5026511;28;20534;-63
2023/10/19 11:19:50;;;;;;;29.57;25.40;;;17.00;99.90;;;;;;5021698;28;20481;-63
2023/10/19 11:22:18;;;;;;;29.93;26.60;;;17.00;99.90;;;;;;5018670;28;20450;-64
2023/10/19 11:24:45;;;;;;;25.77;23.33;;;17.00;99.90;;;;;;5028277;28;20463;-64
2023/10/19 11:27:12;;;;;;;27.30;24.07;;;17.00;99.90;;;;;;5016338;28;20453;-64
2023/10/19 11:29:39;;;;;;;26.93;23.90;;;17.10;99.90;;;;;;5023863;28;21035;-65
2023/10/19 11:32:06;;;;;;;25.57;22.97;;;17.10;99.90;;;;;;5023544;28;20815;-64
2023/10/19 11:34:34;;;;;;;24.43;22.23;;;17.10;99.90;;;;;;5016671;28;20453;-64
2023/10/19 11:37:03;;;;;;;23.50;21.20;;;17.20;99.90;;;;;;5028097;28;20461;-64
2023/10/19 11:39:31;;;;;;;25.30;22.67;;;17.30;99.90;;;;;;5017498;28;21142;-64
2023/10/19 11:41:59;;;;;;;23.40;21.00;;;17.30;99.90;;;;;;5021222;28;20545;-64
2023/10/19 11:44:26;;;;;;;26.60;22.33;;;17.40;99.90;;;;;;5026116;28;20461;-64
2023/10/19 11:46:53;;;;;;;22.57;20.47;;;17.40;99.90;;;;;;5014917;28;20474;-65
2023/10/19 11:49:20;;;;;;;20.03;18.10;;;17.50;99.90;;;;;;5025651;28;20462;-64
2023/10/19 11:51:47;;;;;;;20.83;18.67;;;17.60;99.90;;;;;;5020409;28;20818;-64
2023/10/19 11:54:13;;;;;;;20.70;18.80;;;17.70;99.90;;;;;;5031412;28;20481;-64
2023/10/19 11:56:43;;;;;;;20.53;18.67;;;17.80;99.90;;;;;;5014898;28;20443;-64
2023/10/19 11:59:12;;;;;;;19.17;17.37;;;17.90;99.90;;;;;;5014368;28;20470;-64
2023/10/19 12:01:39;;;;;;;20.63;18.83;;;17.90;99.90;;;;;;5022955;28;20493;-64
2023/10/19 12:04:06;;;;;;;21.23;19.13;;;18.00;99.90;;;;;;5022955;28;20446;-64
2023/10/19 12:06:33;;;;;;;18.53;16.83;;;18.00;99.90;;;;;;5015694;28;20537;-65
2023/10/19 12:09:06;;;;;;;18.40;16.57;;;18.00;99.90;;;;;;5027436;28;20905;-65
2023/10/19 12:11:33;;;;;;;19.47;17.57;;;18.00;99.90;;;;;;5018400;28;20842;-63
2023/10/19 12:14:03;;;;;;;17.83;16.20;;;18.00;99.90;;;;;;5020493;28;20483;-64
2023/10/19 12:16:31;;;;;;;18.43;16.63;;;18.00;99.90;;;;;;5026087;28;20854;-64
2023/10/19 12:18:58;;;;;;;17.70;15.87;;;18.00;99.90;;;;;;5013352;28;20474;-64
2023/10/19 12:21:27;;;;;;;16.87;15.47;;;18.00;99.90;;;;;;5030585;28;21041;-64
2023/10/19 12:23:56;;;;;;;17.57;16.07;;;18.00;99.90;;;;;;5021052;28;20450;-64
2023/10/19 12:26:23;;;;;;;15.80;14.30;;;18.00;99.90;;;;;;5010917;28;20487;-64
2023/10/19 12:28:50;;;;;;;18.23;16.53;;;18.00;99.90;;;;;;5026747;28;20465;-64
2023/10/19 12:31:18;;;;;;;16.70;15.03;;;18.10;99.90;;;;;;5019459;28;20525;-64
2023/10/19 12:33:45;;;;;;;15.97;14.47;;;18.10;99.90;;;;;;5010831;28;20447;-64
2023/10/19 12:36:31;;;;;;;17.53;16.03;;;18.20;99.90;;;;;;5023023;28;20965;-63
2023/10/19 12:38:58;;;;;;;16.10;14.60;;;18.20;99.90;;;;;;5013598;28;20536;-64
2023/10/19 12:41:25;;;;;;;16.10;14.63;;;18.20;99.90;;;;;;5024482;28;20565;-65